Página principal
METAR-TAF:

METAR-TAF

Aeroportos :

Almagro, Espanha

latitude: 38-57-11N, longitude: 3-44-29W, altura: 629 m

Observação actual do tempo

O boletim foi feito há 20 minutos, às 15:00 UTC
Vento 6 kt de este, variando entre nor-nordeste e es-sudeste
Temperatura 17°C
Humidade 59%
Pressão 1016 hPa
Visibilidade 10 km ou mais
Nuvens dispersasa uma altura de 3500 ft

METAR: LEAO 151500Z 08006KT 030V110 9999 SCT035 17/09 Q1016

Hora: 16:20 (15:20 UTC)

Previsão

O boletim foi feito há 1 hora e 20 minutos, às 14:00 UTC
Previsão válida de 15 às 15 UTC a 15 às 24 UTC
Vento 9 kt de este
Visibilidade 10 km ou mais
Nuvens dispersasa uma altura de 3500 ft
Probabilidade 30% :
Temporariamente
de 15 às 15 UTC a 15 às 18 UTC
Nuvens dispersasa uma altura de 3000 ft, Cumulus congestus.
aguaceiros de chuva

TAF: LEAO 151400Z 1515/1524 08009KT 9999 SCT035 PROB30 TEMPO 1515/1518 SHRA SCT030TCU

Observações e previsões do tempo de mais de 4000 aeroportos (mensagens METAR e TAF).

As estações disponíveis são os pontos amarelos e vermelhos sobre o mapa.

Mova o rato sobre o mapa para ver o nome da estação.

Depois clique no ponto para visualizar as observações e previsões meteorológicas.

Para alterar o mapa : clique nos botões verdes com uma cruz preta para aumentar o zoom; no botão verde com uma pitada de zoom; ou nas setas verdes para mapas adjacentes.


METAR-TAF: